Terminal Aerodrome Forecast
Issued by NWS El Paso, TX

Home | Current Version | Previous Version | Text Only | Print | Product List | Glossary On
Versions: 1 2 3 4 5 6 7 8 9 10 11 12 13 14 15 16 17
000
FTUS44 KEPZ 211100
TAFELP
TAF
KELP 211135Z 2112/2212 28008KT P6SM FEW250
     FM212000 23009KT P6SM SCT070 SCT250
     FM220000 24012KT P6SM VCTS SCT070CB BKN150
      TEMPO 2200/2204 6SM -TSRA SCT030 BKN060CB=

USA.gov is the U.S. government's official web portal to all federal, state and local government web resources and services.